Terminal Aerodrome Forecast
Issued by NWS Cleveland, OH

Home | Current Version | Previous Version | Graphics & Text | Print | Product List | Glossary Off
Versions: 1 2 3 4 5 6 7 8 9 10 11 12 13 14 15 16 17 18

000
FTUS41 KCLE 242336
TAFERI
TAF
KERI 242336Z 2500/2524 26005KT P6SM SCT070 OVC100
     FM251200 22010KT P6SM VCTS BKN035CB OVC120
     FM251600 25010KT P6SM SCT040 BKN100=

USA.gov is the U.S. government's official web portal to all federal, state and local government web resources and services.